Impacts TAF Board
For situational awareness. Not to be used for flight planning purposes.
IDs:

KLAX - Los Angeles Intl, CA, US

Issued at 2322 UTC 23 Apr 2019
Updated at 0158 UTC 24 Apr 2019
Potential Impact None Slight Moderate High
Time<<24/14Z 24/15Z 24/16Z 24/17Z 24/18Z 24/19Z 24/20Z 24/21Z 24/22Z 24/23Z 25/00Z 25/01Z 25/02Z>>
Type PRVL PRVL PRVL PRVL PRVL PRVL PRVL PRVL PRVL PRVL PRVL PRVL PRVL
VIS 5 5 >6 >6 >6 >6 >6 >6 >6 >6 >6 >6 >6
CIG 8 8 10 10 10 10 -- -- -- -- -- -- --
Cover OVC OVC BKN BKN BKN BKN SCT SCT SCT SCT SCT SCT SCT
FltCat IFR IFR MVFR MVFR MVFR MVFR VFR VFR VFR VFR VFR VFR VFR
WX BR BR -- -- -- -- -- -- -- -- -- -- --
WDir VRB VRB 240 240 240 240 250 250 250 250 250 250 250
WSpd 3 3 6 6 6 6 12 12 12 12 12 12 12
WGst -- -- -- -- -- -- -- -- -- -- -- -- --
Raw TAF
KLAX 232322Z 2400/2506 27010KT P6SM BKN010
  FM240300 VRB03KT 5SM BR OVC008
  FM241600 24006KT P6SM BKN010
  FM242000 25012KT P6SM SCT010
  FM250300 25006KT P6SM BKN010


METAR Board
Radar Display
Forecast Discussion
For situational awareness. Not to be used for flight planning purposes.